Time;durP1;ratioP1;P1;durP2;ratioP2;P2;SDS_P1;SDS_P2;PMS_P1;PMS_P2;Temp;Humidity;BMP_temperature;BMP_pressure;BME280_temperature;BME280_humidity;BME280_pressure;Samples;Min_cycle;Max_cycle;Signal;HPM_P1;HPM_P2
2022/07/23 05:23:20;;;;;;;2.65;1.67;;;;;;;16.20;68.25;102033.38;4992875;28;98505;-32
2022/07/23 05:25:46;;;;;;;3.22;1.50;;;;;;;16.20;68.01;102025.16;4994650;28;96544;-33
2022/07/23 05:28:11;;;;;;;2.83;1.48;;;;;;;16.30;67.65;102026.31;4995552;28;96942;-33
2022/07/23 05:30:36;;;;;;;4.13;1.27;;;;;;;16.36;67.86;102035.97;4993929;28;114368;-33
2022/07/23 05:33:02;;;;;;;2.53;1.27;;;;;;;16.32;67.92;102029.81;4995030;28;97789;-33
2022/07/23 05:35:27;;;;;;;2.03;1.08;;;;;;;16.37;67.65;102037.72;4995012;28;96566;-33
2022/07/23 05:37:53;;;;;;;1.73;1.10;;;;;;;16.34;67.52;102032.44;4995259;28;96870;-33
2022/07/23 05:40:18;;;;;;;12.25;1.17;;;;;;;16.32;67.78;102029.81;4994035;28;121157;-33
2022/07/23 05:42:43;;;;;;;2.00;1.10;;;;;;;16.34;68.06;102036.06;4994762;28;98926;-33
2022/07/23 05:45:09;;;;;;;5.95;1.48;;;;;;;16.34;68.21;102044.25;4994880;28;96525;-33
2022/07/23 05:47:48;;;;;;;1.77;0.90;;;;;;;16.37;68.96;102045.91;4995217;28;96856;-33
2022/07/23 05:50:15;;;;;;;4.18;1.10;;;;;;;16.46;67.81;102049.91;4977197;28;100961;-33
2022/07/23 05:52:41;;;;;;;2.53;1.40;;;;;;;16.54;67.78;102037.47;4993145;28;100792;-33
2022/07/23 05:55:07;;;;;;;3.70;0.95;;;;;;;16.64;67.29;102032.25;4992871;28;96651;-33
2022/07/23 05:57:33;;;;;;;2.95;1.10;;;;;;;16.73;67.44;102027.97;4993405;28;96785;-33
2022/07/23 05:59:58;;;;;;;3.97;1.58;;;;;;;16.83;66.85;102036.47;4994891;28;97445;-33
2022/07/23 06:02:23;;;;;;;4.70;1.48;;;;;;;16.90;66.55;102033.22;4994497;28;97294;-33
2022/07/23 06:04:49;;;;;;;2.75;1.25;;;;;;;16.99;66.36;102034.41;4991673;28;96895;-33
2022/07/23 06:07:14;;;;;;;1.90;1.15;;;;;;;17.09;66.06;102041.03;4983317;28;96832;-33
2022/07/23 06:09:39;;;;;;;1.63;0.80;;;;;;;17.16;66.45;102031.41;4994193;28;99206;-33
2022/07/23 06:12:05;;;;;;;4.45;1.10;;;;;;;17.27;66.07;102052.53;4994792;28;97824;-33
2022/07/23 06:14:30;;;;;;;2.80;1.30;;;;;;;17.36;65.71;102049.16;4994518;28;96647;-33
2022/07/23 06:16:56;;;;;;;6.95;1.50;;;;;;;17.38;65.44;102052.66;4994564;28;96868;-33
2022/07/23 06:19:21;;;;;;;1.60;0.88;;;;;;;17.47;65.02;102047.50;4984330;28;99364;-33
2022/07/23 06:21:46;;;;;;;1.50;0.88;;;;;;;17.62;65.12;102046.41;4974488;28;97290;-33
2022/07/23 06:24:12;;;;;;;5.30;1.40;;;;;;;17.63;64.92;102029.84;4972880;28;96815;-33
2022/07/23 06:26:37;;;;;;;2.25;1.15;;;;;;;17.73;65.18;102043.78;4973584;28;96780;-33
2022/07/23 06:29:02;;;;;;;1.48;0.73;;;;;;;17.66;64.76;102031.47;4974079;28;109830;-33
2022/07/23 06:31:28;;;;;;;1.48;0.85;;;;;;;17.72;65.07;102033.78;4979690;28;99128;-34
2022/07/23 06:33:54;;;;;;;2.65;1.40;;;;;;;17.83;64.75;102036.66;4993360;28;96573;-34
2022/07/23 06:36:19;;;;;;;2.38;1.30;;;;;;;17.80;64.82;102047.84;4996911;28;96985;-34
2022/07/23 06:38:45;;;;;;;2.63;1.13;;;;;;;17.99;64.64;102046.47;4984445;28;97900;-34
2022/07/23 06:41:10;;;;;;;1.95;1.15;;;;;;;18.15;64.10;102043.50;4997483;28;99287;-33
2022/07/23 06:43:35;;;;;;;2.05;1.13;;;;;;;18.26;62.99;102051.78;4978792;28;96735;-33
2022/07/23 06:46:01;;;;;;;2.70;0.90;;;;;;;18.24;63.47;102051.03;4977709;28;96889;-33
2022/07/23 06:48:26;;;;;;;1.33;1.02;;;;;;;18.36;63.14;102049.25;4977802;28;97992;-33
2022/07/23 06:50:52;;;;;;;1.73;1.08;;;;;;;18.44;62.73;102036.66;4977640;28;97385;-34
2022/07/23 06:53:18;;;;;;;4.20;1.02;;;;;;;18.61;62.48;102050.97;4977684;28;96554;-33
2022/07/23 06:55:43;;;;;;;2.65;1.10;;;;;;;18.66;62.00;102035.03;4976286;28;96804;-33
2022/07/23 06:58:09;;;;;;;1.80;1.10;;;;;;;18.70;61.86;102027.44;4977308;28;97943;-33
2022/07/23 07:00:35;;;;;;;1.85;0.95;;;;;;;18.88;61.72;102035.16;4977612;28;99399;-33
2022/07/23 07:03:00;;;;;;;1.55;0.93;;;;;;;18.98;61.00;102038.06;4977610;28;96502;-33
2022/07/23 07:05:27;;;;;;;2.67;1.42;;;;;;;19.05;60.79;102047.56;4977104;28;97464;-34
2022/07/23 07:07:54;;;;;;;3.33;1.50;;;;;;;19.00;61.21;102052.56;4976622;28;99361;-34
2022/07/23 07:10:19;;;;;;;2.15;0.88;;;;;;;18.97;61.62;102061.00;4975919;28;100831;-34
2022/07/23 07:12:45;;;;;;;2.97;1.20;;;;;;;18.91;61.84;102057.91;4977442;28;96520;-33
2022/07/23 07:15:11;;;;;;;6.05;1.45;;;;;;;18.79;61.31;102057.84;4977383;28;96785;-34
2022/07/23 07:17:36;;;;;;;3.75;1.40;;;;;;;18.75;61.96;102056.28;4994463;28;99545;-34
2022/07/23 07:20:02;;;;;;;2.97;1.27;;;;;;;18.77;61.96;102051.59;4996793;28;99337;-34
2022/07/23 07:22:27;;;;;;;6.97;1.20;;;;;;;18.86;61.64;102055.50;4997329;28;96499;-34
2022/07/23 07:24:53;;;;;;;1.70;1.02;;;;;;;18.96;61.65;102058.41;4996581;28;106032;-33
2022/07/23 07:27:18;;;;;;;2.83;1.35;;;;;;;19.21;61.09;102061.00;4996636;28;104325;-33
2022/07/23 07:29:43;;;;;;;5.32;1.33;;;;;;;19.37;60.51;102068.00;4996679;28;99299;-33
2022/07/23 07:32:09;;;;;;;7.18;1.52;;;;;;;19.46;60.69;102068.16;4996440;28;96583;-34
2022/07/23 07:34:34;;;;;;;1.88;1.27;;;;;;;19.60;60.21;102072.53;4996203;28;108273;-34
2022/07/23 07:36:59;;;;;;;1.70;1.02;;;;;;;19.80;60.17;102070.94;4996806;28;98429;-34
2022/07/23 07:39:25;;;;;;;2.35;1.25;;;;;;;19.98;59.59;102075.97;4996900;28;97432;-34
2022/07/23 07:41:50;;;;;;;4.93;1.38;;;;;;;20.15;59.28;102072.69;4997129;28;96493;-34
2022/07/23 07:44:16;;;;;;;2.83;1.38;;;;;;;20.17;58.99;102072.59;4996997;28;96701;-34
2022/07/23 07:46:42;;;;;;;2.05;1.17;;;;;;;20.24;59.38;102071.94;4995193;28;99746;-34
2022/07/23 07:49:10;;;;;;;2.20;1.30;;;;;;;20.38;58.67;102087.31;4996769;28;100434;-34
2022/07/23 07:51:35;;;;;;;3.90;1.45;;;;;;;20.31;58.35;102078.69;4995358;28;96570;-34
2022/07/23 07:54:01;;;;;;;8.00;1.65;;;;;;;20.48;58.41;102088.28;4996956;28;96980;-34
2022/07/23 07:56:26;;;;;;;4.07;1.63;;;;;;;20.74;58.24;102093.50;4996009;28;97941;-34
2022/07/23 07:58:51;;;;;;;3.22;1.38;;;;;;;20.82;57.69;102090.09;4996075;28;98426;-34
2022/07/23 08:01:19;;;;;;;5.82;1.63;;;;;;;20.76;57.35;102081.34;4996890;28;96553;-34
2022/07/23 08:03:44;;;;;;;4.30;1.15;;;;;;;20.99;57.53;102089.50;4996501;28;96844;-34
2022/07/23 08:06:09;;;;;;;2.08;1.20;;;;;;;21.10;56.72;102088.59;4996248;28;97816;-34
2022/07/23 08:08:35;;;;;;;5.03;1.38;;;;;;;21.20;56.84;102081.28;4996111;28;99096;-34
2022/07/23 08:11:00;;;;;;;3.65;1.50;;;;;;;21.39;56.75;102097.97;4996632;28;96503;-33
2022/07/23 08:13:25;;;;;;;4.60;1.38;;;;;;;21.49;55.73;102100.78;4996641;28;96832;-34
2022/07/23 08:15:52;;;;;;;6.00;1.40;;;;;;;21.54;56.28;102090.22;4996054;28;97957;-34
2022/07/23 08:18:18;;;;;;;2.72;1.17;;;;;;;21.62;56.07;102093.19;4996084;28;99286;-34
2022/07/23 08:20:43;;;;;;;3.05;1.35;;;;;;;21.70;55.79;102091.63;4995975;28;96644;-34
2022/07/23 08:23:09;;;;;;;5.22;1.60;;;;;;;21.81;55.10;102089.66;4996407;28;96775;-34
2022/07/23 08:25:40;;;;;;;2.08;1.30;;;;;;;21.84;54.83;102086.63;4995291;28;99220;-34
2022/07/23 08:28:09;;;;;;;3.33;1.48;;;;;;;21.74;54.62;102073.81;4995835;28;97287;-34
2022/07/23 08:30:36;;;;;;;4.13;1.42;;;;;;;21.81;53.87;102091.56;4994884;28;96682;-34
2022/07/23 08:33:07;;;;;;;2.65;1.13;;;;;;;21.99;54.39;102094.53;4994825;28;96870;-34
2022/07/23 08:35:35;;;;;;;4.20;1.30;;;;;;;22.12;54.37;102097.03;4994126;28;100729;-34
2022/07/23 08:38:06;;;;;;;4.55;1.73;;;;;;;22.21;54.82;102090.72;4994668;28;100843;-34
2022/07/23 08:40:34;;;;;;;3.33;1.33;;;;;;;22.34;54.48;102085.84;4994658;28;96720;-34
2022/07/23 08:43:05;;;;;;;3.03;1.50;;;;;;;22.50;54.51;102084.41;4994695;28;96887;-34
2022/07/23 08:45:30;;;;;;;4.20;1.90;;;;;;;22.41;54.04;102077.88;4993732;28;101333;-34
2022/07/23 08:48:00;;;;;;;3.60;1.83;;;;;;;22.37;53.51;102080.03;4995532;28;98802;-34
2022/07/23 08:50:25;;;;;;;4.78;1.92;;;;;;;22.58;53.52;102087.34;4995757;28;96784;-34
2022/07/23 08:52:51;;;;;;;2.25;1.50;;;;;;;22.62;53.64;102080.50;4995804;28;96834;-34
2022/07/23 08:55:18;;;;;;;4.78;1.65;;;;;;;22.77;52.90;102092.88;4993788;28;101196;-34
2022/07/23 08:57:47;;;;;;;2.90;1.60;;;;;;;22.87;52.90;102098.41;4993551;28;100817;-34
2022/07/23 09:00:13;;;;;;;1.90;1.45;;;;;;;22.71;52.82;102090.69;4994386;28;96672;-34
2022/07/23 09:02:41;;;;;;;4.00;1.48;;;;;;;22.80;53.67;102091.72;4994666;28;96926;-34
2022/07/23 09:05:07;;;;;;;4.00;1.45;;;;;;;22.89;52.00;102090.88;4993765;28;98922;-34
2022/07/23 09:07:32;;;;;;;4.53;1.70;;;;;;;22.99;52.20;102097.28;4993700;28;100775;-35
2022/07/23 09:10:09;;;;;;;5.70;1.38;;;;;;;22.94;52.28;102099.59;4995191;28;96565;-34
2022/07/23 09:12:35;;;;;;;5.53;1.63;;;;;;;23.13;52.84;102109.81;4994265;28;96742;-34
2022/07/23 09:15:07;;;;;;;4.65;1.98;;;;;;;23.14;52.15;102111.53;4995235;28;100389;-34
2022/07/23 09:17:38;;;;;;;4.20;1.63;;;;;;;23.18;51.52;102110.25;4994901;28;100337;-34
2022/07/23 09:20:08;;;;;;;;;;;;;;;23.30;51.27;102111.81;4994510;28;96749;-35
2022/07/23 09:22:33;;;;;;;4.32;1.75;;;;;;;23.46;51.37;102094.63;4994075;28;96919;-34
2022/07/23 09:25:14;;;;;;;5.07;1.65;;;;;;;23.38;50.59;102099.16;4994058;28;104679;-34
2022/07/23 09:27:53;;;;;;;7.05;1.65;;;;;;;23.47;49.89;102101.03;4993992;28;100542;-34
2022/07/23 09:30:23;;;;;;;4.38;1.92;;;;;;;23.48;51.30;102094.50;4993984;28;96873;-34
2022/07/23 09:33:05;;;;;;;3.75;1.70;;;;;;;23.42;49.77;102103.38;4993736;28;96909;-34
2022/07/23 09:35:48;;;;;;;3.63;1.55;;;;;;;23.57;49.52;102104.63;4994336;28;99456;-34
2022/07/23 09:38:14;;;;;;;2.60;1.50;;;;;;;23.71;50.78;102097.78;4994675;28;99511;-34
2022/07/23 09:40:40;;;;;;;1.77;1.17;;;;;;;23.86;49.90;102106.50;4993739;28;96656;-34
2022/07/23 09:43:05;;;;;;;3.10;1.48;;;;;;;24.05;50.84;102100.00;4995042;28;96761;-34
2022/07/23 09:45:31;;;;;;;4.53;2.13;;;;;;;24.14;50.06;102097.19;4994758;28;98914;-34
2022/07/23 09:48:12;;;;;;;5.60;1.20;;;;;;;24.21;48.54;102110.44;4994917;28;97772;-34
2022/07/23 09:50:39;;;;;;;1.63;1.05;;;;;;;24.26;49.64;102103.41;4993644;28;96772;-34
2022/07/23 09:53:04;;;;;;;5.45;1.70;;;;;;;24.45;48.86;102102.44;4993976;28;96826;-34
2022/07/23 09:55:36;;;;;;;4.30;2.05;;;;;;;24.68;48.09;102096.50;4994365;28;98917;-34
2022/07/23 09:58:02;;;;;;;5.78;2.20;;;;;;;24.85;48.61;102108.63;4992982;28;100848;-34
2022/07/23 10:00:29;;;;;;;3.30;1.63;;;;;;;24.85;48.64;102097.53;4992973;28;96566;-34
2022/07/23 10:02:54;;;;;;;4.72;1.70;;;;;;;24.94;45.67;102096.59;4993461;28;96833;-34
2022/07/23 10:05:20;;;;;;;3.35;1.80;;;;;;;24.92;47.85;102099.50;4994212;28;97402;-34
2022/07/23 10:07:46;;;;;;;3.28;1.50;;;;;;;24.99;48.01;102099.75;4992964;28;100881;-34
2022/07/23 10:10:13;;;;;;;4.82;1.40;;;;;;;25.09;47.35;102097.75;4992386;28;97207;-34
2022/07/23 10:15:13;;;;;;;4.25;2.05;;;;;;;25.39;47.44;102106.72;4992417;28;97886;-34
2022/07/23 10:17:38;;;;;;;4.90;1.98;;;;;;;25.54;46.54;102107.88;4994848;28;97406;-34
2022/07/23 10:20:05;;;;;;;3.22;1.80;;;;;;;25.35;45.86;102105.31;4994692;28;96422;-34
2022/07/23 10:22:36;;;;;;;5.57;3.35;;;;;;;25.19;47.08;102098.59;4994549;28;96764;-34
2022/07/23 10:25:20;;;;;;;;;;;;;;;25.14;46.11;102106.47;4992233;28;101056;-34
2022/07/23 10:28:31;;;;;;;3.95;2.22;;;;;;;25.35;46.39;102096.97;4994336;28;97302;-34
2022/07/23 10:31:20;;;;;;;4.13;1.98;;;;;;;25.62;47.13;102107.06;4994346;28;96503;-34
2022/07/23 10:34:26;;;;;;;7.38;1.75;;;;;;;25.69;46.35;102107.28;4993240;28;96714;-34
2022/07/23 10:36:51;;;;;;;3.17;1.48;;;;;;;25.79;44.78;102105.25;4993881;28;99467;-34
2022/07/23 10:39:24;;;;;;;4.10;1.63;;;;;;;25.88;45.54;102098.75;4994216;28;97734;-34
2022/07/23 10:41:51;;;;;;;4.57;1.70;;;;;;;25.64;44.83;102093.91;4994873;28;96475;-34
2022/07/23 10:44:23;;;;;;;4.72;1.95;;;;;;;25.58;43.99;102094.56;4993315;28;96852;-34
2022/07/23 10:49:36;;;;;;;3.03;1.90;;;;;;;25.43;45.73;102081.28;4993718;28;96927;-34
2022/07/23 10:52:14;;;;;;;4.70;1.88;;;;;;;25.63;42.40;102087.47;4992298;28;96673;-34
2022/07/23 10:55:17;;;;;;;3.75;1.65;;;;;;;25.68;44.25;102089.78;4994119;28;96841;-34
2022/07/23 10:57:50;;;;;;;6.68;1.80;;;;;;;25.93;43.75;102074.13;4992275;28;97407;-34
2022/07/23 11:00:21;;;;;;;2.40;1.42;;;;;;;26.05;44.76;102091.38;4991805;28;100988;-34
2022/07/23 11:02:47;;;;;;;3.28;1.55;;;;;;;26.16;42.72;102077.22;4992681;28;96602;-34
2022/07/23 11:05:19;;;;;;;3.35;1.77;;;;;;;26.35;44.31;102077.97;4992061;28;97032;-34
2022/07/23 11:08:02;;;;;;;;;;;;;;;26.47;42.92;102083.06;4992766;28;101716;-34
2022/07/23 11:10:49;;;;;;;5.93;1.95;;;;;;;26.50;42.67;102076.28;4994236;28;97687;-35
2022/07/23 11:13:38;;;;;;;4.95;1.42;;;;;;;26.64;42.33;102081.22;4992870;28;96596;-34
2022/07/23 11:16:15;;;;;;;3.78;1.45;;;;;;;26.87;42.67;102084.22;4992504;28;96889;-34
2022/07/23 11:18:43;;;;;;;3.95;2.05;;;;;;;26.93;42.42;102088.22;4991842;28;100852;-34
2022/07/23 11:21:21;;;;;;;5.13;1.55;;;;;;;27.01;42.02;102076.25;4995463;28;97926;-34
2022/07/23 11:24:10;;;;;;;3.80;1.65;;;;;;;27.13;41.14;102080.44;4995876;28;97583;-34
2022/07/23 11:26:41;;;;;;;3.03;1.35;;;;;;;27.23;41.59;102077.50;4995440;28;96707;-33
2022/07/23 11:29:24;;;;;;;2.50;1.23;;;;;;;27.32;40.36;102076.44;4994647;28;100883;-35
2022/07/23 11:31:59;;;;;;;4.15;2.03;;;;;;;27.40;41.28;102072.78;4995736;28;98782;-35
2022/07/23 11:34:42;;;;;;;7.65;1.70;;;;;;;27.54;40.37;102080.44;4995176;28;96800;-34
2022/07/23 11:37:28;;;;;;;5.32;1.27;;;;;;;27.71;40.86;102073.75;4995520;28;97203;-34
2022/07/23 11:39:55;;;;;;;5.13;1.48;;;;;;;27.73;41.96;102070.81;4995029;28;100816;-34
2022/07/23 11:42:20;;;;;;;2.13;1.38;;;;;;;27.76;40.82;102062.09;4995167;28;100898;-34
2022/07/23 11:44:46;;;;;;;3.25;1.73;;;;;;;27.53;41.04;102068.44;4996397;28;97347;-34
2022/07/23 11:47:12;;;;;;;3.50;1.50;;;;;;;27.57;39.00;102065.28;4995465;28;97030;-34
2022/07/23 11:49:38;;;;;;;4.50;1.70;;;;;;;27.38;39.78;102049.81;4996555;28;97763;-34
2022/07/23 11:52:11;;;;;;;3.85;1.65;;;;;;;27.19;40.96;102056.59;4995081;28;100739;-34
2022/07/23 11:54:47;;;;;;;3.25;1.60;;;;;;;27.16;40.00;102057.81;4995480;28;96588;-34
2022/07/23 11:57:12;;;;;;;3.28;1.58;;;;;;;27.13;41.13;102048.97;4995031;28;97010;-34
2022/07/23 11:59:39;;;;;;;3.60;1.67;;;;;;;27.28;40.16;102050.88;4996531;28;98042;-34
2022/07/23 12:02:05;;;;;;;2.58;1.63;;;;;;;27.35;40.28;102050.19;4995365;28;101053;-34
2022/07/23 12:04:42;;;;;;;3.78;1.45;;;;;;;27.48;38.75;102043.03;4995028;28;96617;-35
2022/07/23 12:07:26;;;;;;;2.90;1.33;;;;;;;27.66;39.58;102055.88;4995257;28;96740;-34
2022/07/23 12:09:51;;;;;;;4.38;1.63;;;;;;;27.54;39.91;102050.66;4994335;28;100810;-34
2022/07/23 12:12:17;;;;;;;3.47;1.60;;;;;;;27.79;39.75;102053.38;4996258;28;97770;-34
2022/07/23 12:14:49;;;;;;;2.88;1.17;;;;;;;28.07;38.44;102053.84;4996491;28;96629;-34
2022/07/23 12:17:15;;;;;;;2.65;1.63;;;;;;;28.17;39.71;102050.81;4995996;28;96832;-34
2022/07/23 12:19:40;;;;;;;3.42;1.60;;;;;;;28.37;39.42;102051.28;4995766;28;99509;-34
2022/07/23 12:22:05;;;;;;;3.60;1.52;;;;;;;28.26;39.46;102048.88;4996108;28;97371;-35
2022/07/23 12:24:31;;;;;;;4.40;1.55;;;;;;;28.30;39.28;102048.34;4996080;28;96955;-34
2022/07/23 12:27:10;;;;;;;3.47;1.60;;;;;;;28.17;38.09;102042.47;4995998;28;96636;-35
2022/07/23 12:29:36;;;;;;;4.93;1.77;;;;;;;27.88;37.29;102041.19;4994423;28;100792;-34
2022/07/23 12:32:02;;;;;;;4.45;1.65;;;;;;;27.72;36.82;102046.78;4993691;28;99173;-34
2022/07/23 12:34:27;;;;;;;3.45;1.80;;;;;;;27.58;39.30;102048.41;4995838;28;96585;-34
2022/07/23 12:36:53;;;;;;;4.18;1.67;;;;;;;27.46;38.15;102047.00;4995975;28;96877;-34
2022/07/23 12:39:31;;;;;;;4.00;1.40;;;;;;;27.36;39.54;102030.50;4995564;28;98920;-34
2022/07/23 12:41:56;;;;;;;2.95;1.58;;;;;;;27.25;40.27;102040.09;4992523;28;100977;-35
2022/07/23 12:44:22;;;;;;;4.10;1.80;;;;;;;27.02;41.13;102044.59;4994844;28;96726;-34
2022/07/23 12:46:52;;;;;;;3.53;1.60;;;;;;;27.04;40.50;102045.28;4994882;28;97215;-35
2022/07/23 12:49:27;;;;;;;5.47;1.98;;;;;;;27.22;39.02;102045.13;4994928;28;98066;-34
2022/07/23 12:51:54;;;;;;;3.50;1.60;;;;;;;27.12;40.19;102048.06;4996402;28;96661;-34
2022/07/23 12:54:27;;;;;;;4.57;1.65;;;;;;;26.98;40.47;102051.53;4996165;28;96495;-34
2022/07/23 12:56:53;;;;;;;4.35;1.73;;;;;;;26.90;41.30;102042.16;4994138;28;96776;-34
2022/07/23 12:59:18;;;;;;;3.13;1.70;;;;;;;27.36;40.67;102044.41;4994842;28;99273;-34
2022/07/23 13:01:57;;;;;;;2.63;1.60;;;;;;;27.19;40.42;102040.78;4995177;28;97928;-34
2022/07/23 13:04:24;;;;;;;3.78;1.70;;;;;;;27.18;39.80;102041.81;4995745;28;96466;-34
2022/07/23 13:06:58;;;;;;;3.80;1.52;;;;;;;27.40;40.42;102036.59;4994034;28;96946;-34
2022/07/23 13:09:29;;;;;;;3.05;1.88;;;;;;;27.04;40.06;102043.38;4993665;28;100809;-34
2022/07/23 13:11:55;;;;;;;4.03;2.00;;;;;;;27.07;40.68;102031.91;4993917;28;100967;-34
2022/07/23 13:14:22;;;;;;;2.92;1.48;;;;;;;27.02;40.38;102031.56;4994160;28;96700;-34
2022/07/23 13:16:49;;;;;;;4.03;2.30;;;;;;;26.86;41.10;102026.88;4994400;28;96886;-34
2022/07/23 13:19:15;;;;;;;5.07;1.60;;;;;;;26.97;40.71;102033.13;4993675;28;99371;-34
2022/07/23 13:21:41;;;;;;;3.92;1.88;;;;;;;27.07;40.42;102018.00;4993795;28;101290;-34
2022/07/23 13:24:09;;;;;;;2.83;1.83;;;;;;;27.33;39.93;102022.53;4994339;28;96751;-35
2022/07/23 13:26:34;;;;;;;2.40;1.48;;;;;;;27.48;40.17;102011.53;4994029;28;96972;-34
2022/07/23 13:28:59;;;;;;;3.33;1.70;;;;;;;27.43;40.84;102017.63;4994970;28;100881;-34
2022/07/23 13:31:25;;;;;;;2.78;1.60;;;;;;;27.29;41.12;102015.56;4994783;28;98822;-34
2022/07/23 13:33:50;;;;;;;2.80;1.67;;;;;;;27.08;40.74;102021.66;4995249;28;96556;-34
2022/07/23 13:36:15;;;;;;;2.38;1.35;;;;;;;26.94;41.90;102023.22;4994978;28;96722;-34
2022/07/23 13:38:41;;;;;;;2.70;1.58;;;;;;;26.94;40.67;102026.00;4994771;28;97940;-34
2022/07/23 13:41:06;;;;;;;3.15;1.70;;;;;;;27.19;42.18;102026.00;4995096;28;99408;-34
2022/07/23 13:43:32;;;;;;;3.38;2.00;;;;;;;27.19;40.55;102034.34;4994133;28;96645;-34
2022/07/23 13:45:58;;;;;;;3.42;1.85;;;;;;;26.97;41.82;102022.88;4994882;28;96867;-34
2022/07/23 13:48:24;;;;;;;4.50;2.17;;;;;;;26.58;42.17;102014.34;4992868;28;101327;-34
2022/07/23 13:50:50;;;;;;;5.20;2.00;;;;;;;26.51;42.20;102018.81;4994835;28;97348;-34
2022/07/23 13:53:18;;;;;;;4.97;2.90;;;;;;;26.34;42.44;102016.00;4993271;28;96676;-34
2022/07/23 13:55:44;;;;;;;3.67;2.17;;;;;;;26.20;43.20;102017.50;4993401;28;96920;-34
2022/07/23 13:58:10;;;;;;;2.65;1.80;;;;;;;26.16;43.23;102013.31;4993078;28;100937;-34
2022/07/23 14:00:39;;;;;;;2.78;1.80;;;;;;;26.27;42.20;102004.69;4993060;28;100889;-34
2022/07/23 14:03:05;;;;;;;2.90;1.70;;;;;;;26.48;42.16;102014.44;4993451;28;96614;-34
2022/07/23 14:05:30;;;;;;;3.78;1.70;;;;;;;26.58;41.78;102009.66;4994986;28;96874;-34
2022/07/23 14:07:56;;;;;;;2.40;1.40;;;;;;;26.80;41.76;102023.91;4994292;28;99543;-35
2022/07/23 14:10:22;;;;;;;3.22;1.25;;;;;;;26.88;41.04;102004.44;4994536;28;97792;-34
2022/07/23 14:12:48;;;;;;;2.40;1.10;;;;;;;26.97;40.77;102003.41;4992872;28;96625;-34
2022/07/23 14:15:14;;;;;;;2.30;1.30;;;;;;;27.06;39.22;102002.34;4993184;28;96802;-34
2022/07/23 14:17:41;;;;;;;1.48;1.10;;;;;;;27.05;40.29;101999.75;4994538;28;97549;-34
2022/07/23 14:20:09;;;;;;;2.30;1.20;;;;;;;26.90;39.68;102008.78;4992872;28;101184;-34
2022/07/23 14:22:35;;;;;;;1.25;1.10;;;;;;;26.82;40.48;102000.44;4993265;28;96561;-34
2022/07/23 14:25:00;;;;;;;1.92;1.25;;;;;;;26.80;38.62;102019.22;4994339;28;96833;-34
2022/07/23 14:27:27;;;;;;;2.35;1.30;;;;;;;26.59;39.40;102007.72;4994272;28;97988;-34
2022/07/23 14:29:54;;;;;;;2.25;1.30;;;;;;;26.53;39.40;102006.47;4993156;28;100985;-34
2022/07/23 14:32:19;;;;;;;2.60;1.17;;;;;;;26.42;38.94;101998.47;4993133;28;96598;-34
2022/07/23 14:34:54;;;;;;;2.42;1.00;;;;;;;26.56;39.99;102008.09;4994346;28;96869;-35
2022/07/23 14:37:19;;;;;;;1.70;0.90;;;;;;;26.73;40.13;102018.16;4992006;28;98078;-35
2022/07/23 14:39:45;;;;;;;3.53;1.08;;;;;;;26.81;39.71;102014.53;4985550;28;99180;-35
2022/07/23 14:42:11;;;;;;;3.63;1.40;;;;;;;26.98;39.84;102020.94;4974811;28;96671;-34
2022/07/23 14:44:37;;;;;;;1.92;0.98;;;;;;;27.07;40.02;102026.34;4973197;28;96865;-34
2022/07/23 14:47:05;;;;;;;1.52;0.90;;;;;;;27.16;39.75;102013.31;4972797;28;101020;-34
2022/07/23 14:49:33;;;;;;;2.97;1.10;;;;;;;27.33;38.34;102025.31;4974149;28;97968;-35
2022/07/23 14:51:59;;;;;;;1.52;0.93;;;;;;;27.22;39.74;102018.22;4974434;28;96638;-35
2022/07/23 14:54:26;;;;;;;2.42;0.93;;;;;;;27.13;40.52;102005.31;4973207;28;96917;-35
2022/07/23 14:56:55;;;;;;;3.35;1.30;;;;;;;27.02;40.15;102003.75;4975446;28;101271;-35
2022/07/23 14:59:20;;;;;;;1.75;1.17;;;;;;;26.86;39.32;102012.09;4987910;28;100898;-34
2022/07/23 15:01:46;;;;;;;1.98;1.23;;;;;;;26.76;40.81;102012.25;4997088;28;96491;-35
2022/07/23 15:04:11;;;;;;;1.65;1.10;;;;;;;26.74;40.19;102005.13;4992366;28;96824;-35
2022/07/23 15:06:38;;;;;;;1.80;1.10;;;;;;;26.67;40.58;102003.06;4991579;28;99268;-35
2022/07/23 15:09:04;;;;;;;3.67;1.30;;;;;;;26.66;40.72;101998.53;4988637;28;99186;-35
2022/07/23 15:11:33;;;;;;;4.50;1.27;;;;;;;26.46;39.70;101999.88;4994305;28;96576;-35
2022/07/23 15:13:59;;;;;;;3.28;1.33;;;;;;;26.36;41.10;102000.03;4995656;28;96860;-35
2022/07/23 15:16:24;;;;;;;2.45;1.48;;;;;;;26.31;41.48;102001.56;4991399;28;99649;-35
2022/07/23 15:18:49;;;;;;;1.50;1.13;;;;;;;26.19;41.60;101995.44;4995682;28;97347;-35
2022/07/23 15:21:15;;;;;;;4.20;1.27;;;;;;;26.09;42.02;102000.28;4986464;28;98092;-34
2022/07/23 15:23:40;;;;;;;3.60;1.90;;;;;;;26.08;41.96;101996.66;4975832;28;96930;-34
2022/07/23 15:26:07;;;;;;;2.25;1.42;;;;;;;26.01;41.97;101988.13;4976469;28;97450;-34
2022/07/23 15:28:33;;;;;;;2.22;1.23;;;;;;;26.01;42.35;101984.47;4975021;28;100907;-35
2022/07/23 15:30:59;;;;;;;3.72;1.35;;;;;;;25.90;41.17;101982.84;4974449;28;97163;-36
2022/07/23 15:33:24;;;;;;;2.75;1.55;;;;;;;25.73;41.78;101976.34;4976737;28;96840;-34
2022/07/23 15:35:49;;;;;;;2.53;1.48;;;;;;;25.73;41.58;101981.03;4985517;28;99393;-34
2022/07/23 15:38:15;;;;;;;2.47;1.23;;;;;;;25.72;41.56;101976.50;4996612;28;99211;-34
2022/07/23 15:40:41;;;;;;;3.85;1.50;;;;;;;25.75;41.41;101971.50;4994999;28;96900;-34
2022/07/23 15:43:06;;;;;;;4.32;1.55;;;;;;;25.78;42.27;101971.16;4994202;28;96944;-35
2022/07/23 15:45:31;;;;;;;4.13;1.60;;;;;;;25.82;41.87;101977.25;4994283;28;100206;-35
2022/07/23 15:47:58;;;;;;;2.67;1.58;;;;;;;25.66;42.12;101968.84;4995679;28;97749;-34
2022/07/23 15:50:23;;;;;;;3.78;1.98;;;;;;;25.72;42.52;101979.25;4994325;28;96949;-35
2022/07/23 15:52:48;;;;;;;4.68;1.90;;;;;;;25.62;42.42;101971.06;4996426;28;96773;-34
2022/07/23 15:55:14;;;;;;;4.25;1.85;;;;;;;25.70;42.85;101976.69;4996595;28;97856;-34
2022/07/23 15:57:39;;;;;;;2.63;1.67;;;;;;;25.74;43.09;101971.66;4996407;28;97979;-34
2022/07/23 16:00:07;;;;;;;3.28;1.90;;;;;;;25.81;43.00;101975.50;4996810;28;96495;-35
2022/07/23 16:02:33;;;;;;;3.42;1.80;;;;;;;25.91;42.60;101972.63;4996624;28;96819;-34
2022/07/23 16:04:58;;;;;;;4.00;2.00;;;;;;;25.90;42.25;101965.34;4994789;28;101162;-34
2022/07/23 16:07:23;;;;;;;3.92;1.98;;;;;;;25.81;42.80;101962.50;4995773;28;97342;-34
2022/07/23 16:09:49;;;;;;;5.47;2.30;;;;;;;25.75;43.15;101971.50;4995262;28;96636;-34
2022/07/23 16:12:14;;;;;;;8.18;2.00;;;;;;;25.70;43.08;101956.38;4995112;28;96721;-34
2022/07/23 16:14:40;;;;;;;3.67;1.83;;;;;;;25.76;43.19;101969.56;4995652;28;97939;-35
2022/07/23 16:17:05;;;;;;;3.88;2.03;;;;;;;25.69;43.18;101958.25;4996303;28;97516;-34
2022/07/23 16:19:31;;;;;;;2.33;1.45;;;;;;;25.69;43.36;101960.19;4996157;28;96547;-34
2022/07/23 16:21:56;;;;;;;5.65;1.90;;;;;;;25.69;43.25;101958.25;4996503;28;96815;-34
2022/07/23 16:24:21;;;;;;;4.93;1.92;;;;;;;25.62;43.40;101946.09;4995765;28;98447;-34
2022/07/23 16:26:47;;;;;;;3.00;1.63;;;;;;;25.66;43.48;101952.19;4996237;28;97270;-34
2022/07/23 16:29:12;;;;;;;14.48;2.20;;;;;;;25.66;43.31;101958.59;4996384;28;96636;-35
2022/07/23 16:31:38;;;;;;;3.83;2.10;;;;;;;25.55;42.90;101954.25;4996599;28;96928;-34
2022/07/23 16:34:04;;;;;;;4.32;2.13;;;;;;;25.49;43.43;101960.44;4994357;28;100788;-34
2022/07/23 16:36:30;;;;;;;3.95;2.08;;;;;;;25.46;43.60;101949.69;4994400;28;101264;-34
2022/07/23 16:38:55;;;;;;;5.40;2.35;;;;;;;25.44;43.50;101943.41;4995598;28;96407;-34
2022/07/23 16:41:20;;;;;;;3.53;1.92;;;;;;;25.54;43.64;101955.25;4995943;28;96835;-34
2022/07/23 16:43:47;;;;;;;5.18;2.30;;;;;;;25.52;43.56;101942.59;4983990;28;99192;-35
2022/07/23 16:46:13;;;;;;;3.28;2.10;;;;;;;25.46;43.83;101944.13;4977127;28;99595;-34
2022/07/23 16:48:38;;;;;;;3.25;1.90;;;;;;;25.45;43.93;101955.38;4994544;28;96663;-34
2022/07/23 16:51:04;;;;;;;3.78;1.98;;;;;;;25.38;44.28;101949.63;4991852;28;96791;-34
2022/07/23 16:53:29;;;;;;;4.35;2.15;;;;;;;25.37;44.13;101957.09;4976167;28;97485;-34
2022/07/23 16:55:54;;;;;;;3.47;2.38;;;;;;;25.30;44.25;101946.81;4981217;28;98836;-34